Time;durP1;ratioP1;P1;durP2;ratioP2;P2;SDS_P1;SDS_P2;PMS_P1;PMS_P2;Temp;Humidity;BMP_temperature;BMP_pressure;BME280_temperature;BME280_humidity;BME280_pressure;Samples;Min_cycle;Max_cycle;Signal;HPM_P1;HPM_P2
2021/11/29 00:02:04;;;;;;;;;;;20.80;61.90;;;;;;5073897;28;19924;-54
2021/11/29 00:04:32;;;;;;;;;;;20.80;61.80;;;;;;5073944;28;20402;-58
2021/11/29 00:06:59;;;;;;;;;;;20.80;61.90;;;;;;5074226;28;19928;-58
2021/11/29 00:09:26;;;;;;;;;;;20.80;61.90;;;;;;5072990;28;20386;-54
2021/11/29 00:11:53;;;;;;;;;;;20.80;61.90;;;;;;5073971;28;19924;-57
2021/11/29 00:14:20;;;;;;;;;;;20.80;61.80;;;;;;5073832;28;19924;-58
2021/11/29 00:16:47;;;;;;;;;;;20.80;61.80;;;;;;5074691;28;19928;-57
2021/11/29 00:19:14;;;;;;;;;;;20.80;61.80;;;;;;5073799;28;19928;-54
2021/11/29 00:21:41;;;;;;;;;;;20.80;61.90;;;;;;5056039;28;19940;-56
2021/11/29 00:24:08;;;;;;;;;;;20.80;61.90;;;;;;5073874;28;19928;-50
2021/11/29 00:26:35;;;;;;;;;;;20.80;61.90;;;;;;5072222;28;19952;-58
2021/11/29 00:29:02;;;;;;;;;;;20.80;62.00;;;;;;5073667;28;19925;-51
2021/11/29 00:31:30;;;;;;;;;;;20.80;61.90;;;;;;5055891;28;19931;-58
2021/11/29 00:33:57;;;;;;;;;;;20.80;61.90;;;;;;5073638;28;19924;-57
2021/11/29 00:36:24;;;;;;;;;;;20.80;61.90;;;;;;5073604;28;19924;-52
2021/11/29 00:38:51;;;;;;;;;;;20.80;61.90;;;;;;5073922;28;19932;-57
2021/11/29 00:41:18;;;;;;;;;;;20.80;61.90;;;;;;5072921;28;19924;-52
2021/11/29 00:43:45;;;;;;;;;;;20.80;61.90;;;;;;5073495;28;19924;-53
2021/11/29 00:46:12;;;;;;;;;;;20.80;61.90;;;;;;5056124;28;19947;-51
2021/11/29 00:48:39;;;;;;;;;;;20.80;62.70;;;;;;5073774;28;19928;-58
2021/11/29 00:51:06;;;;;;;;;;;20.80;62.00;;;;;;5073472;28;19929;-54
2021/11/29 00:53:33;;;;;;;;;;;20.80;62.00;;;;;;5073659;28;19924;-57
2021/11/29 00:56:00;;;;;;;;;;;20.70;61.90;;;;;;5072804;28;19924;-57
2021/11/29 00:58:28;;;;;;;;;;;20.80;62.00;;;;;;5073227;28;20295;-58
2021/11/29 01:00:57;;;;;;;;;;;20.70;62.00;;;;;;5073705;28;20089;-48
2021/11/29 01:03:24;;;;;;;;;;;20.70;61.90;;;;;;5073301;28;19924;-52
2021/11/29 01:05:51;;;;;;;;;;;20.70;61.90;;;;;;5073645;28;20021;-52
2021/11/29 01:08:18;;;;;;;;;;;20.70;61.90;;;;;;5073633;28;19954;-53
2021/11/29 01:10:45;;;;;;;;;;;20.70;62.00;;;;;;5073072;28;19931;-50
2021/11/29 01:13:12;;;;;;;;;;;20.70;62.00;;;;;;5056414;28;19928;-58
2021/11/29 01:15:40;;;;;;;;;;;20.70;62.00;;;;;;5073243;28;19925;-58
2021/11/29 01:18:11;;;;;;;;;;;20.70;62.00;;;;;;5055514;28;19925;-58
2021/11/29 01:20:40;;;;;;;;;;;20.70;62.00;;;;;;5073561;28;19924;-58
2021/11/29 01:23:07;;;;;;;;;;;20.70;62.00;;;;;;5072936;28;20019;-52
2021/11/29 01:25:34;;;;;;;;;;;20.70;62.00;;;;;;5054424;28;19925;-56
2021/11/29 01:28:02;;;;;;;;;;;20.70;62.00;;;;;;5055376;28;19939;-59
2021/11/29 01:30:29;;;;;;;;;;;20.70;62.00;;;;;;5073097;28;19931;-57
2021/11/29 01:32:56;;;;;;;;;;;20.70;62.10;;;;;;5073065;28;19924;-58
2021/11/29 01:35:23;;;;;;;;;;;20.60;62.00;;;;;;5055591;28;19954;-55
2021/11/29 01:37:50;;;;;;;;;;;20.60;62.00;;;;;;5075344;28;19971;-52
2021/11/29 01:40:17;;;;;;;;;;;20.60;62.10;;;;;;5075635;28;19932;-59
2021/11/29 01:42:58;;;;;;;;;;;20.60;62.10;;;;;;5076721;28;19947;-55
2021/11/29 01:45:26;;;;;;;;;;;20.60;62.00;;;;;;5076567;28;19978;-54
2021/11/29 01:47:54;;;;;;;;;;;20.60;62.10;;;;;;5076499;28;19970;-56
2021/11/29 01:50:21;;;;;;;;;;;20.70;62.10;;;;;;5076462;28;19925;-59
2021/11/29 01:52:49;;;;;;;;;;;20.60;62.00;;;;;;5076579;28;19932;-57
2021/11/29 01:55:16;;;;;;;;;;;20.60;62.00;;;;;;5076324;28;19924;-56
2021/11/29 01:57:44;;;;;;;;;;;20.60;62.00;;;;;;5076599;28;19925;-59
2021/11/29 02:00:12;;;;;;;;;;;20.60;61.90;;;;;;5076594;28;19924;-56
2021/11/29 02:02:40;;;;;;;;;;;20.70;62.00;;;;;;5076151;28;19974;-57
2021/11/29 02:05:07;;;;;;;;;;;20.60;61.90;;;;;;5058530;28;19924;-54
2021/11/29 02:07:34;;;;;;;;;;;20.60;61.90;;;;;;5076472;28;19925;-53
2021/11/29 02:10:03;;;;;;;;;;;20.70;62.00;;;;;;5076117;28;19925;-56
2021/11/29 02:12:30;;;;;;;;;;;20.60;61.80;;;;;;5075291;28;20027;-58
2021/11/29 02:14:57;;;;;;;;;;;20.60;61.80;;;;;;5076311;28;19928;-58
2021/11/29 02:17:24;;;;;;;;;;;20.70;61.90;;;;;;5075994;28;19974;-58
2021/11/29 02:19:51;;;;;;;;;;;20.60;61.80;;;;;;5076305;28;19928;-59
2021/11/29 02:22:19;;;;;;;;;;;20.70;61.90;;;;;;5076047;28;19928;-49
2021/11/29 02:24:46;;;;;;;;;;;20.70;61.80;;;;;;5075826;28;19924;-57
2021/11/29 02:27:13;;;;;;;;;;;20.70;61.80;;;;;;5074719;28;19924;-51
2021/11/29 02:29:41;;;;;;;;;;;20.70;61.80;;;;;;5076047;28;19970;-56
2021/11/29 02:32:08;;;;;;;;;;;20.70;61.80;;;;;;5075712;28;19974;-58
2021/11/29 02:34:35;;;;;;;;;;;20.70;61.70;;;;;;5075970;28;19924;-58
2021/11/29 02:37:04;;;;;;;;;;;20.70;61.70;;;;;;5075911;28;19970;-54
2021/11/29 02:39:31;;;;;;;;;;;20.70;61.70;;;;;;5075864;28;20295;-55
2021/11/29 02:41:59;;;;;;;;;;;20.70;61.70;;;;;;5074754;28;19928;-57
2021/11/29 02:44:26;;;;;;;;;;;20.70;61.70;;;;;;5075691;28;19947;-56
2021/11/29 02:46:53;;;;;;;;;;;20.70;61.70;;;;;;5075964;28;19924;-53
2021/11/29 02:49:20;;;;;;;;;;;20.70;61.70;;;;;;5074476;28;19928;-52
2021/11/29 02:51:49;;;;;;;;;;;20.70;62.40;;;;;;5075655;28;19924;-58
2021/11/29 02:54:18;;;;;;;;;;;20.70;61.70;;;;;;5075091;28;19928;-59
2021/11/29 02:56:47;;;;;;;;;;;20.70;61.60;;;;;;5074513;28;19970;-54
2021/11/29 02:59:18;;;;;;;;;;;20.70;61.60;;;;;;5075513;28;19932;-54
2021/11/29 03:01:46;;;;;;;;;;;20.60;61.50;;;;;;5075167;28;19924;-57
2021/11/29 03:04:13;;;;;;;;;;;20.60;61.50;;;;;;5075323;28;19928;-57
2021/11/29 03:06:40;;;;;;;;;;;20.70;61.60;;;;;;5075029;28;19924;-56
2021/11/29 03:09:08;;;;;;;;;;;20.70;61.60;;;;;;5075294;28;20287;-57
2021/11/29 03:11:37;;;;;;;;;;;20.60;61.50;;;;;;5072939;28;20205;-57
2021/11/29 03:14:04;;;;;;;;;;;20.60;61.50;;;;;;5075173;28;20272;-52
2021/11/29 03:16:31;;;;;;;;;;;20.60;62.20;;;;;;5075894;28;19924;-56
2021/11/29 03:18:58;;;;;;;;;;;20.60;61.50;;;;;;5074755;28;20019;-57
2021/11/29 03:21:26;;;;;;;;;;;20.60;61.50;;;;;;5074716;28;20445;-52
2021/11/29 03:23:55;;;;;;;;;;;20.60;61.50;;;;;;5056759;28;20437;-57
2021/11/29 03:26:23;;;;;;;;;;;20.60;61.50;;;;;;5073789;28;19970;-58
2021/11/29 03:28:53;;;;;;;;;;;20.60;62.20;;;;;;5074781;28;20335;-57
2021/11/29 03:31:20;;;;;;;;;;;20.60;61.50;;;;;;5074493;28;19970;-58
2021/11/29 03:33:48;;;;;;;;;;;20.60;61.60;;;;;;5074796;28;19974;-53
2021/11/29 03:36:15;;;;;;;;;;;20.60;61.60;;;;;;5074446;28;19928;-56
2021/11/29 03:38:43;;;;;;;;;;;20.60;61.60;;;;;;5074676;28;19974;-52
2021/11/29 03:41:09;;;;;;;;;;;20.60;61.60;;;;;;5074532;28;19925;-58
2021/11/29 03:43:38;;;;;;;;;;;20.60;61.60;;;;;;5055713;28;19978;-55
2021/11/29 03:46:06;;;;;;;;;;;20.60;61.60;;;;;;5074549;28;19924;-55
2021/11/29 03:48:34;;;;;;;;;;;20.60;61.60;;;;;;5074216;28;19968;-59
2021/11/29 03:51:01;;;;;;;;;;;20.60;61.60;;;;;;5074193;28;19932;-58
2021/11/29 03:53:28;;;;;;;;;;;20.60;61.60;;;;;;5074098;28;19924;-53
2021/11/29 03:55:55;;;;;;;;;;;20.60;61.60;;;;;;5074282;28;19924;-48
2021/11/29 03:58:22;;;;;;;;;;;20.60;61.60;;;;;;5085919;28;20276;-55
2021/11/29 04:00:49;;;;;;;;;;;20.60;61.60;;;;;;5094129;28;19924;-54
2021/11/29 04:03:17;;;;;;;;;;;20.60;61.60;;;;;;5094477;28;19924;-49
2021/11/29 04:05:44;;;;;;;;;;;20.50;61.50;;;;;;5094196;28;19973;-52
2021/11/29 04:08:11;;;;;;;;;;;20.50;61.50;;;;;;5094449;28;19928;-51
2021/11/29 04:10:39;;;;;;;;;;;20.50;61.50;;;;;;5093981;28;19928;-58
2021/11/29 04:13:07;;;;;;;;;;;20.50;61.50;;;;;;5091514;28;19924;-59
2021/11/29 04:15:34;;;;;;;;;;;20.50;61.60;;;;;;5076743;28;19924;-58
2021/11/29 04:18:01;;;;;;;;;;;20.50;61.60;;;;;;5076221;28;19924;-55
2021/11/29 04:20:28;;;;;;;;;;;20.50;61.60;;;;;;5093999;28;19924;-53
2021/11/29 04:22:55;;;;;;;;;;;20.50;61.60;;;;;;5093714;28;19924;-59
2021/11/29 04:25:24;;;;;;;;;;;20.50;61.60;;;;;;5093956;28;19954;-57
2021/11/29 04:27:53;;;;;;;;;;;20.50;61.60;;;;;;5073551;28;20460;-52
2021/11/29 04:30:23;;;;;;;;;;;20.50;61.60;;;;;;5094121;28;19950;-55
2021/11/29 04:32:51;;;;;;;;;;;20.50;61.60;;;;;;5093853;28;19928;-58
2021/11/29 04:35:18;;;;;;;;;;;20.50;61.50;;;;;;5093846;28;19970;-59
2021/11/29 04:37:45;;;;;;;;;;;20.50;61.60;;;;;;5094062;28;19950;-53
2021/11/29 04:40:13;;;;;;;;;;;20.50;61.60;;;;;;5093999;28;19931;-52
2021/11/29 04:42:40;;;;;;;;;;;20.50;61.60;;;;;;5091678;28;19993;-58
2021/11/29 04:45:07;;;;;;;;;;;20.50;62.30;;;;;;5094000;28;19924;-58
2021/11/29 04:47:35;;;;;;;;;;;20.50;61.60;;;;;;5093746;28;19931;-53
2021/11/29 04:50:02;;;;;;;;;;;20.50;61.60;;;;;;5076197;28;20267;-49
2021/11/29 04:52:29;;;;;;;;;;;20.50;61.60;;;;;;5093490;28;19928;-59
2021/11/29 04:54:56;;;;;;;;;;;20.50;61.60;;;;;;5093659;28;19978;-58
2021/11/29 04:57:23;;;;;;;;;;;20.50;61.60;;;;;;5091601;28;19931;-57
2021/11/29 04:59:50;;;;;;;;;;;20.50;61.60;;;;;;5093754;28;20280;-50
2021/11/29 05:02:17;;;;;;;;;;;20.40;61.50;;;;;;5093565;28;19924;-55
2021/11/29 05:04:46;;;;;;;;;;;20.50;61.70;;;;;;5093493;28;19924;-55
2021/11/29 05:07:14;;;;;;;;;;;20.50;61.70;;;;;;5094123;28;19924;-51
2021/11/29 05:09:42;;;;;;;;;;;20.40;61.60;;;;;;5093850;28;19924;-56
2021/11/29 05:12:10;;;;;;;;;;;20.40;61.60;;;;;;5094801;28;19977;-54
2021/11/29 05:14:37;;;;;;;;;;;20.40;61.50;;;;;;5076910;28;19928;-50
2021/11/29 05:17:04;;;;;;;;;;;20.40;61.60;;;;;;5097384;28;19924;-58
2021/11/29 05:19:31;;;;;;;;;;;20.40;61.60;;;;;;5097658;28;20010;-58
2021/11/29 05:21:58;;;;;;;;;;;20.40;61.60;;;;;;5079369;28;19969;-54
2021/11/29 05:24:25;;;;;;;;;;;20.40;62.30;;;;;;5096981;28;19928;-55
2021/11/29 05:26:52;;;;;;;;;;;20.50;61.70;;;;;;5097519;28;19927;-58
2021/11/29 05:29:19;;;;;;;;;;;20.40;61.60;;;;;;5094833;28;19928;-58
2021/11/29 05:31:47;;;;;;;;;;;20.40;61.60;;;;;;5097959;28;19931;-58
2021/11/29 05:34:14;;;;;;;;;;;20.40;61.60;;;;;;5097080;28;19948;-53
2021/11/29 05:36:44;;;;;;;;;;;20.40;61.60;;;;;;5079371;28;19924;-54
2021/11/29 05:39:11;;;;;;;;;;;20.40;61.60;;;;;;5079304;28;19924;-55
2021/11/29 05:41:38;;;;;;;;;;;20.40;61.60;;;;;;5096837;28;19970;-58
2021/11/29 05:44:05;;;;;;;;;;;20.40;61.60;;;;;;5076243;28;19924;-56
2021/11/29 05:46:32;;;;;;;;;;;20.40;61.60;;;;;;5097143;28;20333;-53
2021/11/29 05:49:01;;;;;;;;;;;20.40;61.60;;;;;;5096816;28;19975;-57
2021/11/29 05:51:29;;;;;;;;;;;20.40;61.60;;;;;;5096735;28;20424;-58
2021/11/29 05:53:56;;;;;;;;;;;20.40;61.60;;;;;;5079121;28;19947;-59
2021/11/29 05:56:23;;;;;;;;;;;20.40;61.50;;;;;;5096974;28;20295;-57
2021/11/29 05:58:51;;;;;;;;;;;20.40;61.50;;;;;;5093843;28;20387;-58
2021/11/29 06:01:18;;;;;;;;;;;20.40;61.50;;;;;;5096530;28;19931;-59
2021/11/29 06:03:45;;;;;;;;;;;20.40;61.50;;;;;;5096712;28;19925;-59
2021/11/29 06:06:12;;;;;;;;;;;20.40;61.40;;;;;;5096449;28;19924;-52
2021/11/29 06:08:40;;;;;;;;;;;20.40;61.40;;;;;;5078584;28;20391;-54
2021/11/29 06:11:07;;;;;;;;;;;20.40;61.40;;;;;;5096233;28;19924;-52
2021/11/29 06:13:34;;;;;;;;;;;20.40;61.40;;;;;;5094501;28;19934;-56
2021/11/29 06:16:02;;;;;;;;;;;20.40;62.10;;;;;;5096250;28;19924;-49
2021/11/29 06:18:29;;;;;;;;;;;20.40;61.40;;;;;;5096194;28;19935;-57
2021/11/29 06:20:56;;;;;;;;;;;20.40;61.40;;;;;;5097003;28;20421;-55
2021/11/29 06:23:24;;;;;;;;;;;20.40;61.40;;;;;;5076760;28;19977;-50
2021/11/29 06:25:50;;;;;;;;;;;20.40;61.30;;;;;;5096059;28;20357;-54
2021/11/29 06:28:18;;;;;;;;;;;20.40;61.30;;;;;;5095141;28;19924;-56
2021/11/29 06:30:45;;;;;;;;;;;20.40;61.30;;;;;;5075800;28;19924;-56
2021/11/29 06:33:11;;;;;;;;;;;20.40;61.30;;;;;;5076010;28;19924;-57
2021/11/29 06:35:38;;;;;;;;;;;20.50;61.40;;;;;;5058448;28;19994;-56
2021/11/29 06:38:06;;;;;;;;;;;20.50;61.40;;;;;;5075555;28;19982;-54
2021/11/29 06:40:34;;;;;;;;;;;20.50;61.30;;;;;;5075456;28;19924;-58
2021/11/29 06:43:01;;;;;;;;;;;20.50;61.30;;;;;;5075782;28;20287;-58
2021/11/29 06:45:28;;;;;;;;;;;20.50;61.30;;;;;;5074413;28;19925;-54
2021/11/29 06:47:55;;;;;;;;;;;20.50;61.20;;;;;;5076803;28;20317;-57
2021/11/29 06:50:22;;;;;;;;;;;20.50;61.90;;;;;;5075672;28;20041;-55
2021/11/29 06:52:50;;;;;;;;;;;20.50;61.10;;;;;;5075096;28;19929;-53
2021/11/29 06:55:20;;;;;;;;;;;20.50;61.00;;;;;;5075283;28;19924;-55
2021/11/29 06:57:47;;;;;;;;;;;20.50;61.00;;;;;;5075097;28;20435;-54
2021/11/29 07:00:16;;;;;;;;;;;20.50;60.90;;;;;;5073970;28;19978;-54
2021/11/29 07:02:43;;;;;;;;;;;20.50;60.90;;;;;;5075057;28;19925;-55
2021/11/29 07:05:11;;;;;;;;;;;20.50;60.80;;;;;;5075203;28;19928;-57
2021/11/29 07:07:38;;;;;;;;;;;20.50;60.80;;;;;;5075290;28;19951;-55
2021/11/29 07:10:05;;;;;;;;;;;20.60;60.80;;;;;;5074747;28;20376;-48
2021/11/29 07:12:36;;;;;;;;;;;20.60;60.80;;;;;;5074884;28;19970;-58
2021/11/29 07:15:03;;;;;;;;;;;20.60;60.80;;;;;;5073934;28;19970;-53
2021/11/29 07:17:31;;;;;;;;;;;20.60;60.80;;;;;;5075052;28;19928;-56
2021/11/29 07:19:58;;;;;;;;;;;20.60;60.70;;;;;;5074963;28;19924;-57
2021/11/29 07:22:25;;;;;;;;;;;20.60;60.70;;;;;;5074682;28;19924;-58
2021/11/29 07:24:53;;;;;;;;;;;20.60;60.70;;;;;;5075044;28;19974;-58
2021/11/29 07:27:20;;;;;;;;;;;20.60;60.60;;;;;;5057655;28;19955;-52
2021/11/29 07:29:47;;;;;;;;;;;20.60;60.60;;;;;;5073948;28;19978;-60
2021/11/29 07:32:14;;;;;;;;;;;20.60;60.60;;;;;;5056768;28;19974;-58
2021/11/29 07:34:41;;;;;;;;;;;20.60;60.60;;;;;;5074077;28;19924;-58
2021/11/29 07:37:08;;;;;;;;;;;20.60;60.60;;;;;;5074440;28;19924;-59
2021/11/29 07:39:35;;;;;;;;;;;20.60;60.60;;;;;;5074350;28;19924;-48
2021/11/29 07:42:03;;;;;;;;;;;20.60;60.60;;;;;;5074197;28;19973;-53
2021/11/29 07:44:30;;;;;;;;;;;20.60;60.50;;;;;;5073764;28;19932;-58
2021/11/29 07:46:57;;;;;;;;;;;20.60;60.50;;;;;;5074786;28;19924;-56
2021/11/29 07:49:24;;;;;;;;;;;20.60;60.40;;;;;;5074185;28;19924;-51
2021/11/29 07:51:53;;;;;;;;;;;20.60;60.40;;;;;;5074363;28;19924;-49
2021/11/29 07:54:20;;;;;;;;;;;20.60;60.40;;;;;;5074103;28;20003;-55
2021/11/29 07:56:47;;;;;;;;;;;20.60;60.30;;;;;;5074056;28;20418;-53
2021/11/29 07:59:14;;;;;;;;;;;20.60;60.40;;;;;;5054002;28;19932;-49
2021/11/29 08:01:41;;;;;;;;;;;20.70;60.40;;;;;;5054668;28;19925;-57
2021/11/29 08:04:08;;;;;;;;;;;20.60;60.20;;;;;;5052916;28;19978;-54
2021/11/29 08:06:35;;;;;;;;;;;20.70;60.30;;;;;;5053951;28;19979;-52
2021/11/29 08:09:03;;;;;;;;;;;20.70;60.30;;;;;;5053953;28;19924;-58
2021/11/29 08:11:30;;;;;;;;;;;20.70;60.30;;;;;;5053719;28;20459;-57
2021/11/29 08:13:57;;;;;;;;;;;20.70;60.20;;;;;;5053839;28;19925;-51
2021/11/29 08:16:24;;;;;;;;;;;20.70;60.20;;;;;;5053314;28;19947;-58
2021/11/29 08:18:51;;;;;;;;;;;20.70;60.20;;;;;;5053777;28;19968;-58
2021/11/29 08:21:38;;;;;;;;;;;20.70;60.10;;;;;;5054622;28;19935;-52
2021/11/29 08:24:05;;;;;;;;;;;20.70;60.10;;;;;;5054032;28;20337;-55
2021/11/29 08:26:37;;;;;;;;;;;20.70;60.00;;;;;;5054624;28;20023;-53
2021/11/29 08:29:04;;;;;;;;;;;20.70;60.00;;;;;;5052768;28;19971;-53
2021/11/29 08:31:31;;;;;;;;;;;20.80;60.10;;;;;;5052558;28;19978;-56
2021/11/29 08:33:58;;;;;;;;;;;20.80;60.00;;;;;;5053905;28;20011;-54
2021/11/29 08:36:26;;;;;;;;;;;20.80;60.00;;;;;;5053489;28;19925;-57
2021/11/29 08:38:53;;;;;;;;;;;20.80;59.90;;;;;;5053898;28;20004;-58
2021/11/29 08:41:21;;;;;;;;;;;20.80;59.90;;;;;;5053687;28;19951;-59
2021/11/29 08:43:48;;;;;;;;;;;20.80;59.80;;;;;;5053879;28;19925;-58
2021/11/29 08:46:15;;;;;;;;;;;20.90;59.90;;;;;;5052465;28;20380;-54
2021/11/29 08:48:42;;;;;;;;;;;20.90;59.80;;;;;;5057962;28;19932;-55
2021/11/29 08:51:09;;;;;;;;;;;20.90;59.80;;;;;;5057927;28;19978;-57
2021/11/29 08:53:38;;;;;;;;;;;20.90;59.70;;;;;;5057407;28;19932;-57
2021/11/29 08:56:06;;;;;;;;;;;20.90;59.60;;;;;;5057783;28;20273;-57
2021/11/29 08:58:33;;;;;;;;;;;21.00;59.60;;;;;;5072079;28;20291;-53
2021/11/29 09:01:00;;;;;;;;;;;21.00;59.60;;;;;;5076755;28;19982;-55
2021/11/29 09:03:28;;;;;;;;;;;21.00;59.50;;;;;;5077567;28;19990;-52
2021/11/29 09:05:55;;;;;;;;;;;21.00;59.40;;;;;;5077087;28;19974;-57
2021/11/29 09:08:23;;;;;;;;;;;21.00;59.30;;;;;;5077443;28;19967;-57
2021/11/29 09:10:51;;;;;;;;;;;21.00;59.30;;;;;;5077064;28;19929;-59
2021/11/29 09:13:37;;;;;;;;;;;21.10;59.30;;;;;;5077210;28;19972;-58
2021/11/29 09:16:05;;;;;;;;;;;21.10;59.30;;;;;;5076168;28;19925;-58
2021/11/29 09:18:33;;;;;;;;;;;21.10;59.20;;;;;;5077059;28;19930;-56
2021/11/29 09:21:01;;;;;;;;;;;21.10;59.10;;;;;;5077322;28;19928;-58
2021/11/29 09:23:29;;;;;;;;;;;21.10;59.00;;;;;;5076782;28;19928;-59
2021/11/29 09:25:56;;;;;;;;;;;21.20;59.10;;;;;;5076871;28;19970;-58
2021/11/29 09:28:23;;;;;;;;;;;21.20;59.00;;;;;;5076866;28;19924;-59
2021/11/29 09:30:51;;;;;;;;;;;21.20;59.00;;;;;;5075933;28;19929;-56
2021/11/29 09:33:19;;;;;;;;;;;21.20;59.00;;;;;;5077056;28;19958;-59
2021/11/29 09:35:46;;;;;;;;;;;21.30;59.10;;;;;;5076968;28;19950;-59
2021/11/29 09:38:13;;;;;;;;;;;21.20;58.90;;;;;;5076689;28;19924;-56
2021/11/29 09:40:41;;;;;;;;;;;21.30;59.00;;;;;;5076912;28;20342;-57
2021/11/29 09:43:10;;;;;;;;;;;21.30;58.90;;;;;;5076615;28;19929;-56
2021/11/29 09:45:39;;;;;;;;;;;21.30;58.90;;;;;;5075412;28;19924;-58
2021/11/29 09:48:07;;;;;;;;;;;21.30;58.80;;;;;;5076818;28;20296;-59
2021/11/29 09:50:36;;;;;;;;;;;21.30;58.80;;;;;;5058755;28;20403;-59
2021/11/29 09:53:03;;;;;;;;;;;21.30;58.80;;;;;;5076201;28;19932;-55
2021/11/29 09:55:36;;;;;;;;;;;21.40;58.80;;;;;;5076663;28;19931;-54
2021/11/29 09:58:04;;;;;;;;;;;21.40;58.80;;;;;;5075944;28;19925;-54
2021/11/29 10:00:34;;;;;;;;;;;21.40;58.80;;;;;;5075782;28;19929;-53
2021/11/29 10:03:02;;;;;;;;;;;21.40;58.80;;;;;;5076194;28;19935;-59
2021/11/29 10:05:30;;;;;;;;;;;21.40;58.70;;;;;;5076457;28;19924;-57
2021/11/29 10:07:57;;;;;;;;;;;21.40;58.80;;;;;;5075996;28;19924;-59
2021/11/29 10:10:27;;;;;;;;;;;21.40;58.70;;;;;;5075908;28;19974;-60
2021/11/29 10:12:57;;;;;;;;;;;21.40;58.70;;;;;;5076104;28;19932;-57
2021/11/29 10:15:29;;;;;;;;;;;21.40;58.60;;;;;;5075971;28;19924;-55
2021/11/29 10:18:13;;;;;;;;;;;21.50;58.70;;;;;;5075374;28;19924;-59
2021/11/29 10:20:52;;;;;;;;;;;21.50;58.70;;;;;;5075954;28;20090;-54
2021/11/29 10:23:25;;;;;;;;;;;21.50;58.70;;;;;;5075727;28;19932;-58
2021/11/29 10:25:53;;;;;;;;;;;21.50;58.70;;;;;;5076116;28;20279;-59
2021/11/29 10:28:24;;;;;;;;;;;21.50;58.70;;;;;;5076106;28;20016;-58
2021/11/29 10:31:17;;;;;;;;;;;21.50;58.70;;;;;;5074687;28;19986;-55
2021/11/29 10:33:48;;;;;;;;;;;21.50;58.70;;;;;;5076033;28;19928;-59
2021/11/29 10:36:18;;;;;;;;;;;21.50;58.70;;;;;;5075965;28;19924;-55
2021/11/29 10:38:49;;;;;;;;;;;21.50;58.70;;;;;;5075967;28;19974;-60
2021/11/29 10:41:20;;;;;;;;;;;21.50;58.80;;;;;;5075576;28;19931;-60
2021/11/29 10:43:47;;;;;;;;;;;21.50;58.70;;;;;;5075537;28;19932;-56
2021/11/29 10:46:18;;;;;;;;;;;21.50;58.70;;;;;;5074290;28;19978;-54
2021/11/29 10:48:46;;;;;;;;;;;21.50;58.70;;;;;;5075436;28;19955;-59
2021/11/29 10:51:14;;;;;;;;;;;21.50;58.70;;;;;;5075280;28;19924;-55
2021/11/29 10:53:59;;;;;;;;;;;21.50;58.80;;;;;;5075089;28;19935;-57
2021/11/29 10:56:27;;;;;;;;;;;21.50;58.80;;;;;;5075249;28;19924;-57
2021/11/29 10:58:56;;;;;;;;;;;21.50;58.80;;;;;;5075080;28;19925;-55
2021/11/29 11:01:32;;;;;;;;;;;21.50;58.90;;;;;;5073993;28;19973;-58
2021/11/29 11:04:00;;;;;;;;;;;21.50;58.90;;;;;;5075469;28;19932;-58
2021/11/29 11:06:28;;;;;;;;;;;21.50;58.90;;;;;;5075305;28;19931;-57
2021/11/29 11:08:55;;;;;;;;;;;21.50;58.90;;;;;;5075818;28;19925;-60
2021/11/29 11:11:37;;;;;;;;;;;21.50;59.00;;;;;;5074645;28;20031;-59
2021/11/29 11:14:10;;;;;;;;;;;21.50;59.00;;;;;;5074888;28;19925;-54
2021/11/29 11:16:40;;;;;;;;;;;21.50;59.00;;;;;;5074231;28;19998;-54
2021/11/29 11:19:23;;;;;;;;;;;21.50;59.10;;;;;;5074832;28;19970;-54
2021/11/29 11:21:52;;;;;;;;;;;21.50;59.00;;;;;;5074742;28;19924;-55
2021/11/29 11:24:26;;;;;;;;;;;21.50;59.10;;;;;;5074908;28;19978;-56
2021/11/29 11:26:57;;;;;;;;;;;21.50;59.10;;;;;;5075765;28;19974;-54
2021/11/29 11:29:35;;;;;;;;;;;21.50;59.10;;;;;;5074967;28;19924;-50
2021/11/29 11:32:10;;;;;;;;;;;21.50;59.10;;;;;;5056085;28;19932;-57
2021/11/29 11:34:37;;;;;;;;;;;21.50;59.10;;;;;;5074515;28;19925;-58
2021/11/29 11:37:04;;;;;;;;;;;21.50;59.10;;;;;;5074746;28;19924;-51
2021/11/29 11:39:31;;;;;;;;;;;21.50;59.20;;;;;;5056766;28;19932;-54
2021/11/29 11:41:58;;;;;;;;;;;21.50;59.20;;;;;;5074278;28;20372;-59
2021/11/29 11:44:25;;;;;;;;;;;21.50;59.20;;;;;;5074568;28;19938;-58
2021/11/29 11:46:56;;;;;;;;;;;21.50;59.20;;;;;;5055998;28;19966;-59
2021/11/29 11:49:24;;;;;;;;;;;21.50;59.20;;;;;;5074216;28;19939;-51
2021/11/29 11:51:51;;;;;;;;;;;21.50;59.20;;;;;;5074487;28;19929;-51
2021/11/29 11:54:18;;;;;;;;;;;21.60;59.20;;;;;;5074291;28;20280;-53
2021/11/29 11:57:05;;;;;;;;;;;21.60;59.20;;;;;;5074421;28;20328;-58
2021/11/29 11:59:39;;;;;;;;;;;21.60;59.00;;;;;;5074073;28;19982;-58
2021/11/29 12:02:06;;;;;;;;;;;21.60;59.00;;;;;;5055808;28;19993;-57
2021/11/29 12:04:33;;;;;;;;;;;21.60;59.00;;;;;;5074323;28;19948;-58
2021/11/29 12:07:00;;;;;;;;;;;21.60;59.00;;;;;;5074241;28;20016;-55
2021/11/29 12:09:28;;;;;;;;;;;21.60;58.90;;;;;;5074285;28;19925;-53
2021/11/29 12:12:01;;;;;;;;;;;21.70;59.00;;;;;;5074119;28;19947;-56
2021/11/29 12:14:35;;;;;;;;;;;21.70;58.90;;;;;;5074242;28;19931;-54
2021/11/29 12:17:17;;;;;;;;;;;21.70;58.90;;;;;;5055477;28;19936;-59
2021/11/29 12:19:48;;;;;;;;;;;21.70;58.90;;;;;;5054417;28;20296;-58
2021/11/29 12:22:14;;;;;;;;;;;21.70;58.90;;;;;;5053772;28;19955;-57
2021/11/29 12:24:47;;;;;;;;;;;21.70;58.80;;;;;;5053590;28;20091;-53
2021/11/29 12:27:14;;;;;;;;;;;21.70;58.80;;;;;;5036435;28;19925;-58
2021/11/29 12:29:43;;;;;;;;;;;21.70;58.80;;;;;;5054005;28;20338;-54
2021/11/29 12:32:11;;;;;;;;;;;21.70;58.80;;;;;;5053207;28;20395;-56
2021/11/29 12:34:48;;;;;;;;;;;21.80;58.80;;;;;;5073665;28;19975;-53
2021/11/29 12:37:23;;;;;;;;;;;21.80;58.80;;;;;;5074115;28;19924;-56
2021/11/29 12:39:50;;;;;;;;;;;21.80;58.80;;;;;;5073459;28;19925;-50
2021/11/29 12:42:20;;;;;;;;;;;21.80;58.80;;;;;;5073895;28;19928;-55
2021/11/29 12:44:49;;;;;;;;;;;21.80;58.80;;;;;;5074340;28;19962;-59
2021/11/29 12:47:18;;;;;;;;;;;21.80;58.80;;;;;;5073444;28;20303;-57
2021/11/29 12:49:52;;;;;;;;;;;21.80;58.80;;;;;;5072337;28;19925;-58
2021/11/29 12:52:38;;;;;;;;;;;21.80;58.80;;;;;;5073366;28;19979;-56
2021/11/29 12:55:24;;;;;;;;;;;21.80;58.80;;;;;;5073758;28;19928;-55
2021/11/29 12:58:07;;;;;;;;;;;21.80;58.80;;;;;;5073476;28;20060;-60
2021/11/29 13:00:35;;;;;;;;;;;21.80;58.80;;;;;;5073714;28;20073;-60
2021/11/29 13:03:03;;;;;;;;;;;21.80;58.80;;;;;;5072937;28;19957;-56
2021/11/29 13:05:51;;;;;;;;;;;21.80;58.90;;;;;;5073289;28;19924;-52
2021/11/29 13:08:23;;;;;;;;;;;21.80;58.90;;;;;;5073019;28;19930;-52
2021/11/29 13:10:55;;;;;;;;;;;21.80;58.90;;;;;;5076921;28;20338;-55
2021/11/29 13:13:37;;;;;;;;;;;21.80;58.90;;;;;;5084344;28;20368;-55
2021/11/29 13:16:05;;;;;;;;;;;21.80;59.00;;;;;;5055919;28;20342;-50
2021/11/29 13:18:41;;;;;;;;;;;21.80;59.00;;;;;;5072079;28;20028;-56
2021/11/29 13:21:08;;;;;;;;;;;21.80;58.90;;;;;;5072653;28;19932;-56
2021/11/29 13:23:43;;;;;;;;;;;21.80;59.00;;;;;;5072745;28;19924;-52
2021/11/29 13:26:10;;;;;;;;;;;21.80;59.00;;;;;;5073049;28;19925;-51
2021/11/29 13:28:38;;;;;;;;;;;21.70;59.00;;;;;;5073867;28;19928;-49
2021/11/29 13:31:05;;;;;;;;;;;21.70;59.00;;;;;;5073041;28;19924;-58
2021/11/29 13:33:34;;;;;;;;;;;21.70;59.00;;;;;;5056250;28;19924;-49
2021/11/29 13:36:04;;;;;;;;;;;21.70;59.00;;;;;;5077020;28;19974;-51
2021/11/29 13:38:31;;;;;;;;;;;21.70;59.00;;;;;;5059085;28;19971;-53
2021/11/29 13:40:58;;;;;;;;;;;21.70;59.00;;;;;;5076886;28;20018;-51
2021/11/29 13:43:29;;;;;;;;;;;21.70;59.00;;;;;;5076988;28;19986;-49
2021/11/29 13:45:56;;;;;;;;;;;21.70;59.00;;;;;;5076600;28;19978;-51
2021/11/29 13:48:24;;;;;;;;;;;21.70;59.00;;;;;;5076015;28;19928;-58
2021/11/29 13:50:54;;;;;;;;;;;21.70;59.10;;;;;;5076799;28;19924;-51
2021/11/29 13:53:31;;;;;;;;;;;21.70;59.00;;;;;;5076592;28;19924;-54
2021/11/29 13:56:04;;;;;;;;;;;21.70;59.00;;;;;;5076712;28;19924;-52
2021/11/29 13:58:34;;;;;;;;;;;21.70;59.00;;;;;;5076367;28;20304;-56
2021/11/29 14:01:01;;;;;;;;;;;21.70;59.00;;;;;;5076405;28;19924;-51
2021/11/29 14:03:32;;;;;;;;;;;21.70;59.00;;;;;;5058335;28;20714;-60
2021/11/29 14:06:08;;;;;;;;;;;21.70;59.00;;;;;;5076238;28;19924;-57
2021/11/29 14:08:44;;;;;;;;;;;21.70;59.00;;;;;;5058894;28;19966;-48
2021/11/29 14:11:15;;;;;;;;;;;21.70;59.00;;;;;;5076346;28;19931;-52
2021/11/29 14:13:48;;;;;;;;;;;21.70;59.00;;;;;;5076478;28;19990;-58
2021/11/29 14:16:18;;;;;;;;;;;21.70;59.00;;;;;;5076066;28;19932;-58
2021/11/29 14:18:45;;;;;;;;;;;21.70;59.00;;;;;;5075895;28;20025;-54
2021/11/29 14:21:17;;;;;;;;;;;21.70;59.00;;;;;;5075916;28;19932;-51
2021/11/29 14:23:46;;;;;;;;;;;21.70;59.00;;;;;;5076025;28;19925;-54
2021/11/29 14:26:15;;;;;;;;;;;21.70;59.00;;;;;;5059228;28;20245;-56